Ms Folla 2 — LLPD — position and weather

sailwx.info

Track history (hours):
 
Tides and Currents Weather Stations Pressure Air Temp Water Temp Dewpoint Dewpoint Depression Visibility Wind Speed Wind Dir Waves Ship Positions

Ms Folla 2

Last reported at 2018-Jul-19 17:00 UTC. Time now 2018-Jul-19 17:05 UTC.
Position N 64°28' E 011°30'.

Length 52 m; draft 5.5 m.

Type: Cargo ship. MMSI: 258253000.

Date/timePositionNaut miles runAvg speedWind from/ knotsBaromVisibWave heightAir tempDewpointWater temp
2018-Jul-19 17:00N 64°28' E 011°30'0 0.0
2018-Jul-19 16:30N 64°28' E 011°30'0 0.0
2018-Jul-19 15:59N 64°28' E 011°30'0 0.0
2018-Jul-19 15:30N 64°28' E 011°30'0 0.0
2018-Jul-19 15:00N 64°28' E 011°30'0 0.0
2018-Jul-19 14:00N 64°28' E 011°30'3 6.0
2018-Jul-19 13:29N 64°30' E 011°26'510.1
2018-Jul-19 13:01N 64°34' E 011°20'611.3
2018-Jul-19 12:30N 64°38' E 011°10'611.5
2018-Jul-19 12:00N 64°44' E 011°07'510.6
2018-Jul-19 11:30N 64°49' E 011°08'611.0
2018-Jul-19 11:00N 64°53' E 011°17'611.8
2018-Jul-19 10:30N 64°56' E 011°28'611.6
2018-Jul-19 10:00N 65°00' E 011°38'611.5
2018-Jul-19 09:30N 65°05' E 011°46'611.8
2018-Jul-19 09:00N 65°10' E 011°51'612.0
2018-Jul-19 08:29N 65°16' E 011°57'611.8
2018-Jul-19 08:00N 65°21' E 012°03'611.8
2018-Jul-19 07:30N 65°26' E 012°10'4 8.8
2018-Jul-19 07:00N 65°31' E 012°12'611.8
2018-Jul-19 06:30N 65°37' E 012°12'5 9.4
2018-Jul-19 06:00N 65°41' E 012°08'0 0.0
2018-Jul-19 05:30N 65°41' E 012°08'0 0.0
2018-Jul-19 04:59N 65°41' E 012°08'0 0.0
2018-Jul-19 04:30N 65°41' E 012°08'0 0.0
2018-Jul-19 04:00N 65°41' E 012°08'0 0.0
2018-Jul-19 03:30N 65°41' E 012°08'0 0.0
2018-Jul-19 03:00N 65°41' E 012°08'4 7.1
2018-Jul-19 02:30N 65°45' E 012°10'611.1
2018-Jul-19 02:00N 65°50' E 012°11'611.3
2018-Jul-19 01:30N 65°56' E 012°11'510.5
2018-Jul-19 00:59N 66°01' E 012°06'511.0
2018-Jul-19 00:30N 66°06' E 012°06'511.0
2018-Jul-19 00:00N 66°12' E 012°04'611.0
2018-Jul-18 23:30N 66°17' E 012°04'511.0
2018-Jul-18 23:00N 66°23' E 012°04'611.3
2018-Jul-18 22:30N 66°28' E 012°05'1 1.5
2018-Jul-18 22:00N 66°29' E 012°05'611.2
2018-Jul-18 21:30N 66°27' E 012°18'611.6
2018-Jul-18 21:00N 66°26' E 012°32'3 6.9
2018-Jul-18 20:31N 66°22' E 012°35'510.9
2018-Jul-18 20:00N 66°27' E 012°43'610.9
2018-Jul-18 19:29N 66°31' E 012°52'510.5
2018-Jul-18 19:00N 66°36' E 012°58'3 5.5
2018-Jul-18 18:29N 66°38' E 013°00'0 0.0
2018-Jul-18 18:00N 66°38' E 013°00'3 6.0
2018-Jul-18 17:31N 66°40' E 013°07'510.5
2018-Jul-18 17:01N 66°44' E 013°14'611.3
2018-Jul-18 16:30N 66°45' E 013°29'1 1.0
2018-Jul-18 16:00N 66°45' E 013°30'0 0.0
2018-Jul-18 15:30N 66°45' E 013°30'0 0.0
2018-Jul-18 15:00N 66°45' E 013°30'0 0.0
2018-Jul-18 14:30N 66°45' E 013°30'0 0.0
2018-Jul-18 13:27N 66°45' E 013°30'0 0.0
2018-Jul-18 13:00N 66°45' E 013°30'0 0.0
2018-Jul-18 12:30N 66°45' E 013°30'2 4.5
2018-Jul-18 12:00N 66°47' E 013°31'5 9.0
2018-Jul-18 11:30N 66°51' E 013°34'9 9.2
2018-Jul-18 10:30N 67°00' E 013°40'611.7
2018-Jul-18 10:01N 67°03' E 013°52'611.4
2018-Jul-18 09:30N 67°08' E 014°01'611.8
2018-Jul-18 09:00N 67°13' E 014°08'611.8
2018-Jul-18 08:30N 67°18' E 014°17'611.6
2018-Jul-18 08:00N 67°23' E 014°25'611.7
2018-Jul-18 07:30N 67°28' E 014°29'611.5
2018-Jul-18 07:00N 67°34' E 014°30'611.3
2018-Jul-18 06:30N 67°40' E 014°31'611.6
2018-Jul-18 06:00N 67°46' E 014°32'611.2
2018-Jul-18 05:29N 67°51' E 014°39'511.3
2018-Jul-18 05:00N 67°55' E 014°47'612.0
2018-Jul-18 04:29N 68°00' E 014°57'612.0
2018-Jul-18 04:00N 68°05' E 015°07'611.7
2018-Jul-18 03:30N 68°10' E 015°16'611.7
2018-Jul-18 03:00N 68°14' E 015°26'611.2
2018-Jul-18 02:30N 68°20' E 015°28'2 4.0
2018-Jul-18 02:00N 68°20' E 015°23'0 0.0
2018-Jul-18 01:30N 68°20' E 015°23'0 0.0
2018-Jul-18 00:59N 68°20' E 015°23'0 0.0
2018-Jul-18 00:30N 68°20' E 015°23'0 0.0
2018-Jul-18 00:00N 68°20' E 015°23'1 2.8
2018-Jul-17 23:29N 68°20' E 015°27'511.0
2018-Jul-17 23:00N 68°18' E 015°40'611.6
2018-Jul-17 22:30N 68°17' E 015°55'510.4
2018-Jul-17 21:59N 68°14' E 016°07'611.6
2018-Jul-17 21:30N 68°08' E 016°10'510.4
2018-Jul-17 20:59N 68°03' E 016°12'1 2.9
2018-Jul-17 20:30N 68°02' E 016°15'0 0.0
2018-Jul-17 20:00N 68°02' E 016°15'3 6.5
2018-Jul-17 19:29N 68°04' E 016°22'1 2.1
2018-Jul-17 19:00N 68°05' E 016°19'0 0.0
2018-Jul-17 18:30N 68°05' E 016°19'0 0.0
2018-Jul-17 18:00N 68°05' E 016°19'0 0.0
2018-Jul-17 17:30N 68°05' E 016°19'2 3.2
2018-Jul-17 16:59N 68°06' E 016°17'511.0
2018-Jul-17 16:30N 68°11' E 016°11'4 8.5
2018-Jul-17 16:00N 68°15' E 016°10'510.2
2018-Jul-17 15:30N 68°19' E 016°01'611.2
2018-Jul-17 15:00N 68°25' E 016°03'611.2
2018-Jul-17 14:30N 68°30' E 016°08'510.1
2018-Jul-17 14:00N 68°33' E 016°18'5 9.5
2018-Jul-17 13:30N 68°34' E 016°31'611.2
2018-Jul-17 13:00N 68°39' E 016°37'611.5
2018-Jul-17 12:30N 68°44' E 016°45'611.4
2018-Jul-17 12:00N 68°49' E 016°53'611.3
2018-Jul-17 11:28N 68°54' E 017°02'511.1
2018-Jul-17 11:00N 68°58' E 017°10'610.9
2018-Jul-17 10:29N 69°03' E 017°20'510.9
2018-Jul-17 10:00N 69°06' E 017°31'611.4
2018-Jul-17 09:30N 69°08' E 017°45'611.3
2018-Jul-17 09:01N 69°11' E 017°59'5 9.8
2018-Jul-17 08:30N 69°16' E 017°58'510.2
2018-Jul-17 08:00N 69°21' E 018°04'510.2
2018-Jul-17 07:30N 69°26' E 018°07'510.2
2018-Jul-17 07:00N 69°30' E 018°16'611.8
2018-Jul-17 06:30N 69°32' E 018°32'612.6
2018-Jul-17 06:00N 69°34' E 018°48'611.9
2018-Jul-17 05:30N 69°39' E 018°59'611.2
2018-Jul-17 05:00N 69°44' E 019°05'611.1
2018-Jul-17 04:30N 69°47' E 019°17'611.1
2018-Jul-17 04:00N 69°50' E 019°33'611.1
2018-Jul-17 03:29N 69°52' E 019°48'511.4
2018-Jul-17 03:00N 69°55' E 020°00'611.0
2018-Jul-17 02:30N 69°59' E 020°14'510.7
2018-Jul-17 02:00N 70°00' E 020°28'511.0
2018-Jul-17 01:30N 70°02' E 020°43'510.4
2018-Jul-17 00:59N 70°05' E 020°56'611.1
2018-Jul-17 00:29N 70°10' E 021°04'1110.8
2018-Jul-16 23:30N 70°18' E 021°24'510.7
2018-Jul-16 23:00N 70°22' E 021°36'5 9.2
2018-Jul-16 22:30N 70°23' E 021°49'611.2
2018-Jul-16 22:00N 70°20' E 022°04'611.3
2018-Jul-16 21:30N 70°17' E 022°18'3 5.9
2018-Jul-16 21:00N 70°14' E 022°21'0 0.0
2018-Jul-16 20:30N 70°14' E 022°21'0 0.0
2018-Jul-16 20:00N 70°14' E 022°21'0 0.0
2018-Jul-16 19:30N 70°14' E 022°21'0 0.0
2018-Jul-16 18:59N 70°14' E 022°21'0 0.0
2018-Jul-16 18:30N 70°14' E 022°21'0 0.0
2018-Jul-16 18:00N 70°14' E 022°21'2 4.5
2018-Jul-16 17:29N 70°17' E 022°19'611.5
2018-Jul-16 17:00N 70°20' E 022°05'611.9
2018-Jul-16 16:30N 70°23' E 021°50'5 9.7
2018-Jul-16 16:00N 70°22' E 021°36'612.4
2018-Jul-16 15:30N 70°17' E 021°22'612.0
2018-Jul-16 15:00N 70°13' E 021°09'611.9
2018-Jul-16 14:30N 70°08' E 021°05'611.5
2018-Jul-16 13:59N 70°02' E 021°00'0 0.9
2018-Jul-16 13:30N 70°02' E 020°59'3 5.2
2018-Jul-16 13:00N 70°03' E 020°52'612.6
2018-Jul-16 12:30N 70°01' E 020°35'612.1
2018-Jul-16 12:00N 69°59' E 020°18'612.3
2018-Jul-16 11:30N 69°56' E 020°03'612.1
2018-Jul-16 11:00N 69°52' E 019°49'612.1
2018-Jul-16 10:30N 69°49' E 019°33'612.3
2018-Jul-16 10:00N 69°47' E 019°17'611.9
2018-Jul-16 09:30N 69°43' E 019°04'3 6.3
2018-Jul-16 09:00N 69°41' E 018°59'0 0.0
2018-Jul-16 08:30N 69°41' E 018°59'0 0.4
2018-Jul-16 08:00N 69°41' E 018°59'3 5.6
2018-Jul-16 07:30N 69°38' E 018°57'611.4
2018-Jul-16 07:00N 69°34' E 018°46'510.2
2018-Jul-16 06:30N 69°32' E 018°33'611.6
2018-Jul-16 06:00N 69°30' E 018°17'510.1
2018-Jul-16 05:29N 69°26' E 018°07'611.9
2018-Jul-16 05:00N 69°20' E 018°03'611.2
2018-Jul-16 04:30N 69°15' E 017°58'1 1.4
2018-Jul-16 04:00N 69°14' E 017°58'0 0.9
2018-Jul-16 03:30N 69°14' E 017°58'0 0.7
2018-Jul-16 03:00N 69°13' E 017°58'1 1.7
2018-Jul-16 02:28N 69°13' E 018°00'510.2
2018-Jul-16 02:00N 69°09' E 017°51'612.6
2018-Jul-16 01:30N 69°07' E 017°35'612.2
2018-Jul-16 01:00N 69°03' E 017°20'612.2
2018-Jul-16 00:30N 68°59' E 017°11'612.2
2018-Jul-16 00:00N 68°54' E 016°58'612.3
2018-Jul-15 23:30N 68°50' E 016°45'5 9.5
2018-Jul-15 23:00N 68°47' E 016°36'1 2.6
2018-Jul-15 22:30N 68°48' E 016°33'0 0.0
2018-Jul-15 21:59N 68°48' E 016°33'3 7.0
2018-Jul-15 21:30N 68°51' E 016°33'611.8
2018-Jul-15 21:00N 68°54' E 016°20'5 9.0
2018-Jul-15 20:30N 68°52' E 016°09'510.2
2018-Jul-15 19:59N 68°47' E 016°08'1 1.4
2018-Jul-15 19:30N 68°46' E 016°09'510.6
2018-Jul-15 19:00N 68°51' E 016°03'611.3
2018-Jul-15 18:30N 68°56' E 015°58'5 9.7
2018-Jul-15 18:00N 68°59' E 015°46'4 7.1
2018-Jul-15 17:30N 68°57' E 015°37'611.4
2018-Jul-15 17:00N 68°52' E 015°31'611.9
2018-Jul-15 16:29N 68°46' E 015°26'4 8.8
2018-Jul-15 16:00N 68°42' E 015°25'0 0.0
2018-Jul-15 15:29N 68°42' E 015°25'2 4.0
2018-Jul-15 14:59N 68°40' E 015°24'611.8
2018-Jul-15 14:29N 68°36' E 015°12'510.9
2018-Jul-15 14:00N 68°35' E 014°58'1 2.7
2018-Jul-15 13:30N 68°34' E 014°55'1 2.0
2018-Jul-15 13:00N 68°35' E 014°57'3 5.9
2018-Jul-15 12:30N 68°33' E 015°04'4 7.6
2018-Jul-15 12:00N 68°30' E 015°10'510.3
2018-Jul-15 11:30N 68°25' E 015°08'611.8
2018-Jul-15 11:00N 68°20' E 015°00'611.4
2018-Jul-15 10:30N 68°14' E 014°56'5 9.7
2018-Jul-15 10:00N 68°14' E 014°43'3 6.0
2018-Jul-15 09:30N 68°14' E 014°35'0 0.1
2018-Jul-15 09:00N 68°14' E 014°35'0 0.1
2018-Jul-15 08:30N 68°14' E 014°35'1 2.8
2018-Jul-15 08:00N 68°13' E 014°33'611.5
2018-Jul-15 07:29N 68°10' E 014°19'511.4
2018-Jul-15 07:00N 68°07' E 014°06'611.6
2018-Jul-15 06:30N 68°05' E 013°52'611.2
2018-Jul-15 06:00N 68°04' E 013°37'4 7.4
2018-Jul-15 05:29N 68°08' E 013°34'1 1.6
2018-Jul-15 05:00N 68°08' E 013°36'0 0.1
2018-Jul-15 04:30N 68°08' E 013°36'4 9.0
2018-Jul-15 04:00N 68°04' E 013°37'611.6
2018-Jul-15 03:30N 67°59' E 013°46'611.7
2018-Jul-15 02:59N 67°54' E 013°55'611.4
2018-Jul-15 02:29N 67°49' E 014°02'511.1
2018-Jul-15 02:00N 67°44' E 014°10'611.1
2018-Jul-15 01:30N 67°40' E 014°19'510.5
2018-Jul-15 01:00N 67°38' E 014°32'611.2
2018-Jul-15 00:30N 67°37' E 014°46'611.2
2018-Jul-15 00:00N 67°36' E 015°01'611.2
2018-Jul-14 23:27N 67°33' E 015°14'5 8.5
2018-Jul-14 22:54N 67°32' E 015°26'1 2.7
2018-Jul-14 22:28N 67°31' E 015°23'510.4
2018-Jul-14 22:00N 67°34' E 015°12'510.4
2018-Jul-14 21:30N 67°39' E 015°09'611.0
2018-Jul-14 21:00N 67°44' E 015°15'3 2.2
2018-Jul-14 19:42N 67°43' E 015°23'2 8.2
2018-Jul-14 19:28N 67°45' E 015°19'511.2
2018-Jul-14 18:59N 67°42' E 015°08'511.2
2018-Jul-14 18:30N 67°38' E 014°56'611.1
2018-Jul-14 18:00N 67°34' E 014°47'611.2
2018-Jul-14 17:30N 67°30' E 014°38'611.1
2018-Jul-14 17:00N 67°25' E 014°31'510.8
2018-Jul-14 16:30N 67°20' E 014°25'3 5.3
2018-Jul-14 16:00N 67°17' E 014°24'0 0.1
2018-Jul-14 15:30N 67°17' E 014°24'4 7.5
2018-Jul-14 15:00N 67°15' E 014°16'611.1
2018-Jul-14 14:30N 67°11' E 014°06'1010.0
2018-Jul-14 13:30N 67°03' E 013°51'611.3
2018-Jul-14 13:00N 66°60' E 013°39'510.3
2018-Jul-14 12:30N 66°56' E 013°29'5 9.5
2018-Jul-14 12:00N 66°53' E 013°39'3 5.7
2018-Jul-14 11:29N 66°51' E 013°41'510.9
2018-Jul-14 11:00N 66°48' E 013°29'3 6.5
2018-Jul-14 10:29N 66°45' E 013°30'0 0.0
2018-Jul-14 10:00N 66°45' E 013°30'1 1.9
2018-Jul-14 09:30N 66°45' E 013°32'2 4.9
2018-Jul-14 09:00N 66°45' E 013°26'611.0
2018-Jul-14 08:30N 66°44' E 013°12'2 4.0
2018-Jul-14 08:00N 66°42' E 013°16'510.9
2018-Jul-14 07:30N 66°39' E 013°07'510.6
2018-Jul-14 06:59N 66°33' E 013°03'510.7
2018-Jul-14 06:30N 66°31' E 012°51'510.7
2018-Jul-14 06:00N 66°26' E 012°47'2 4.6
2018-Jul-14 05:28N 66°24' E 012°50'3 7.0
2018-Jul-14 05:00N 66°22' E 012°42'510.8
2018-Jul-14 04:30N 66°17' E 012°39'611.3
2018-Jul-14 04:00N 66°11' E 012°39'611.2
2018-Jul-14 03:29N 66°06' E 012°40'4 8.3
2018-Jul-14 02:59N 66°01' E 012°39'0 0.6
2018-Jul-14 02:30N 66°02' E 012°38'5 9.8
2018-Jul-14 02:00N 65°59' E 012°29'510.6
2018-Jul-14 01:30N 65°54' E 012°22'510.9
2018-Jul-14 00:59N 65°49' E 012°21'510.9
2018-Jul-14 00:30N 65°43' E 012°17'510.7
2018-Jul-14 00:00N 65°38' E 012°14'510.9
2018-Jul-13 23:30N 65°33' E 012°13'4 8.4
2018-Jul-13 22:59N 65°28' E 012°12'0 0.0
2018-Jul-13 22:29N 65°28' E 012°12'1 2.5
2018-Jul-13 22:00N 65°27' E 012°11'511.0
2018-Jul-13 21:30N 65°22' E 012°05'510.9
2018-Jul-13 21:00N 65°18' E 011°59'611.0
2018-Jul-13 20:30N 65°13' E 011°53'611.0
2018-Jul-13 20:00N 65°07' E 011°49'510.7
2018-Jul-13 19:30N 65°03' E 011°43'510.8
2018-Jul-13 19:00N 64°59' E 011°35'510.8
2018-Jul-13 18:30N 64°55' E 011°25'510.4
2018-Jul-13 18:01N 64°52' E 011°17'0 0.3
2018-Jul-13 17:30N 64°52' E 011°17'0 0.4
2018-Jul-13 17:00N 64°52' E 011°16'5 9.6
2018-Jul-13 16:30N 64°48' E 011°08'5 9.7
2018-Jul-13 15:58N 64°43' E 011°06'510.8
2018-Jul-13 15:30N 64°38' E 011°09'510.3
2018-Jul-13 15:00N 64°35' E 011°18'9 9.0
2018-Jul-13 14:01N 64°27' E 011°28'1 1.9
2018-Jul-13 13:30N 64°28' E 011°30'0 0.0
2018-Jul-13 13:00N 64°28' E 011°30'0 0.0
2018-Jul-13 12:30N 64°28' E 011°30'0 0.0
2018-Jul-13 12:00N 64°28' E 011°30'0 0.0
2018-Jul-13 11:30N 64°28' E 011°30'0 0.0
2018-Jul-13 11:00N 64°28' E 011°30'0 0.0
2018-Jul-13 10:30N 64°28' E 011°30'0 0.0
2018-Jul-13 10:00N 64°28' E 011°30'0 0.0
2018-Jul-13 09:30N 64°28' E 011°30'0 0.0
2018-Jul-13 09:00N 64°28' E 011°30'0 0.0
2018-Jul-13 08:27N 64°28' E 011°30'0 0.0
2018-Jul-13 08:00N 64°28' E 011°30'0 0.0
2018-Jul-13 07:30N 64°28' E 011°30'0 0.0
2018-Jul-13 07:00N 64°28' E 011°30'0 0.0
2018-Jul-13 06:30N 64°28' E 011°30'0 0.0
2018-Jul-13 06:00N 64°28' E 011°30'0 0.0
2018-Jul-13 05:30N 64°28' E 011°30'0 0.0
2018-Jul-13 05:00N 64°28' E 011°30'0 0.0
2018-Jul-13 04:30N 64°28' E 011°30'0 0.0
2018-Jul-13 04:00N 64°28' E 011°30'0 0.0
2018-Jul-13 03:30N 64°28' E 011°30'0 0.0
2018-Jul-13 03:00N 64°28' E 011°30'0 0.0
2018-Jul-13 02:30N 64°28' E 011°30'0 0.0
2018-Jul-13 02:00N 64°28' E 011°30'0 0.0
2018-Jul-13 01:30N 64°28' E 011°30'0 0.0
2018-Jul-13 01:00N 64°28' E 011°30'0 0.0
2018-Jul-13 00:30N 64°28' E 011°30'0 0.0
2018-Jul-13 00:00N 64°28' E 011°30'0 0.0
2018-Jul-12 23:30N 64°28' E 011°30'0 0.0
2018-Jul-12 23:00N 64°28' E 011°30'0 0.0
2018-Jul-12 22:30N 64°28' E 011°30'0 0.0
2018-Jul-12 22:00N 64°28' E 011°30'0 0.0
2018-Jul-12 21:30N 64°28' E 011°30'0 0.0
2018-Jul-12 21:00N 64°28' E 011°30'0 0.0
2018-Jul-12 20:30N 64°28' E 011°30'0 0.0
2018-Jul-12 20:00N 64°28' E 011°30'0 0.0
2018-Jul-12 19:30N 64°28' E 011°30'0 0.0
2018-Jul-12 19:00N 64°28' E 011°30'0 0.0
2018-Jul-12 18:30N 64°28' E 011°30'0 0.0
2018-Jul-12 18:00N 64°28' E 011°30'0 0.0
2018-Jul-12 17:30N 64°28' E 011°30'0 0.0
2018-Jul-12 17:00N 64°28' E 011°30'0 0.0
2018-Jul-12 16:30N 64°28' E 011°30'0 0.0
2018-Jul-12 16:00N 64°28' E 011°30'0 0.0
2018-Jul-12 15:30N 64°28' E 011°30'3 5.8
2018-Jul-12 15:00N 64°28' E 011°24'611.2
2018-Jul-12 14:30N 64°30' E 011°12'510.9
2018-Jul-12 14:00N 64°35' E 011°05'511.0
2018-Jul-12 13:30N 64°38' E 010°55'510.2
2018-Jul-12 13:00N 64°42' E 010°48'4 7.2
2018-Jul-12 12:30N 64°46' E 010°48'0 0.0
2018-Jul-12 12:00N 64°46' E 010°48'0 0.0
2018-Jul-12 11:29N 64°46' E 010°48'0 0.0
2018-Jul-12 11:00N 64°46' E 010°48'0 0.0
2018-Jul-12 10:30N 64°46' E 010°48'3 6.0
2018-Jul-12 10:00N 64°47' E 010°55'510.4
2018-Jul-12 09:30N 64°48' E 011°07'5 9.7
2018-Jul-12 09:00N 64°52' E 011°15'0 0.0
2018-Jul-12 08:30N 64°52' E 011°15'1 2.0
2018-Jul-12 08:00N 64°52' E 011°17'0 0.0
2018-Jul-12 07:30N 64°52' E 011°17'0 0.0
2018-Jul-12 07:00N 64°52' E 011°17'0 0.0
2018-Jul-12 06:30N 64°52' E 011°17'0 0.0
2018-Jul-12 06:00N 64°52' E 011°17'0 0.0
2018-Jul-12 05:30N 64°52' E 011°17'0 0.0
2018-Jul-12 05:00N 64°52' E 011°17'0 0.0
2018-Jul-12 04:30N 64°52' E 011°17'0 0.0
2018-Jul-12 04:00N 64°52' E 011°17'0 0.0
2018-Jul-12 03:30N 64°52' E 011°17'0 0.0
2018-Jul-12 03:00N 64°52' E 011°17'0 0.0
2018-Jul-12 02:30N 64°52' E 011°17'0 0.0
2018-Jul-12 02:00N 64°52' E 011°17'0 0.0
2018-Jul-12 01:29N 64°52' E 011°17'0 0.0
2018-Jul-12 01:00N 64°52' E 011°17'0 0.0
2018-Jul-12 00:30N 64°52' E 011°17'0 0.0
2018-Jul-12 00:00N 64°52' E 011°17'0 0.0
2018-Jul-11 23:29N 64°52' E 011°17'0 0.0
2018-Jul-11 22:57N 64°52' E 011°17'0 0.0
2018-Jul-11 22:30N 64°52' E 011°17'0 0.0
2018-Jul-11 22:00N 64°52' E 011°17'0 0.0
2018-Jul-11 21:30N 64°52' E 011°17'0 0.0
2018-Jul-11 21:00N 64°52' E 011°17'0 0.0
2018-Jul-11 20:30N 64°52' E 011°17'0 0.0
2018-Jul-11 20:00N 64°52' E 011°17'0 0.0
2018-Jul-11 19:30N 64°52' E 011°17'0 0.0
2018-Jul-11 19:00N 64°52' E 011°17'0 0.0
2018-Jul-11 18:30N 64°52' E 011°17'0 0.0
2018-Jul-11 18:00N 64°52' E 011°17'0 0.0
2018-Jul-11 17:30N 64°52' E 011°17'2 3.6
2018-Jul-11 17:00N 64°53' E 011°18'611.7
2018-Jul-11 16:30N 64°57' E 011°29'611.4
2018-Jul-11 16:00N 65°01' E 011°39'611.6
2018-Jul-11 15:30N 65°05' E 011°47'611.9
2018-Jul-11 14:59N 65°11' E 011°52'612.0
2018-Jul-11 14:30N 65°17' E 011°58'612.0
2018-Jul-11 13:59N 65°22' E 012°05'612.0
2018-Jul-11 13:30N 65°27' E 012°11'4 7.5
2018-Jul-11 13:00N 65°31' E 012°12'612.0
2018-Jul-11 12:30N 65°37' E 012°12'5 8.6
2018-Jul-11 11:59N 65°41' E 012°08'0 0.0
2018-Jul-11 11:29N 65°41' E 012°08'0 0.0
2018-Jul-11 11:00N 65°41' E 012°08'0 0.0
2018-Jul-11 10:30N 65°41' E 012°08'0 0.0
2018-Jul-11 10:00N 65°41' E 012°08'3 5.4
2018-Jul-11 09:30N 65°43' E 012°11'611.1
2018-Jul-11 09:00N 65°49' E 012°16'611.4
2018-Jul-11 08:30N 65°54' E 012°21'611.8
2018-Jul-11 07:59N 65°59' E 012°29'612.1
2018-Jul-11 07:28N 66°04' E 012°39'511.6
2018-Jul-11 07:00N 66°08' E 012°49'1 2.4
2018-Jul-11 06:30N 66°08' E 012°52'0 0.0
2018-Jul-11 05:59N 66°08' E 012°52'3 6.7
2018-Jul-11 05:30N 66°11' E 012°47'1 1.0
2018-Jul-11 05:00N 66°11' E 012°46'0 0.0
2018-Jul-11 04:30N 66°11' E 012°46'0 0.2
2018-Jul-11 04:00N 66°11' E 012°46'510.0
2018-Jul-11 03:30N 66°14' E 012°53'1 1.4
2018-Jul-11 02:59N 66°15' E 012°53'0 0.0
2018-Jul-11 02:28N 66°15' E 012°53'0 0.4
2018-Jul-11 02:00N 66°15' E 012°54'5 9.8
2018-Jul-11 01:30N 66°20' E 012°56'611.0
2018-Jul-11 01:00N 66°25' E 012°58'510.7
2018-Jul-11 00:30N 66°31' E 012°59'5 9.8
2018-Jul-11 00:00N 66°35' E 013°04'510.6
2018-Jul-10 23:30N 66°40' E 013°08'510.2
2018-Jul-10 22:59N 66°44' E 013°16'510.7
2018-Jul-10 22:30N 66°45' E 013°29'0 0.6
2018-Jul-10 21:59N 66°45' E 013°30'0 0.0
2018-Jul-10 21:30N 66°45' E 013°30'0 0.0
2018-Jul-10 20:58N 66°45' E 013°30'0 0.0
2018-Jul-10 20:29N 66°45' E 013°30'0 0.0
2018-Jul-10 19:59N 66°45' E 013°30'0 0.0
2018-Jul-10 19:30N 66°45' E 013°30'0 0.0
2018-Jul-10 19:00N 66°45' E 013°30'0 0.0
2018-Jul-10 18:30N 66°45' E 013°30'0 0.0
2018-Jul-10 17:59N 66°45' E 013°30'0 0.0
2018-Jul-10 17:30N 66°45' E 013°30'4 7.2
2018-Jul-10 16:59N 66°44' E 013°21'510.8
2018-Jul-10 16:30N 66°42' E 013°09'5 9.9
2018-Jul-10 16:00N 66°39' E 013°00'0 0.1
2018-Jul-10 15:30N 66°38' E 013°00'0 0.0
2018-Jul-10 15:00N 66°38' E 013°00'0 0.0
2018-Jul-10 14:30N 66°38' E 013°00'2 4.2
2018-Jul-10 13:59N 66°39' E 013°05'511.3
2018-Jul-10 13:30N 66°44' E 013°11'2 4.0
2018-Jul-10 12:58N 66°46' E 013°10'0 0.0
2018-Jul-10 12:28N 66°46' E 013°10'1 2.4
2018-Jul-10 12:00N 66°47' E 013°13'2 3.8
2018-Jul-10 11:30N 66°48' E 013°14'0 0.0
2018-Jul-10 11:00N 66°48' E 013°14'2 4.0
2018-Jul-10 10:30N 66°48' E 013°19'611.1
2018-Jul-10 10:00N 66°49' E 013°33'3 3.5
2018-Jul-10 09:08N 66°49' E 013°41'0 3.1
2018-Jul-10 09:00N 66°49' E 013°41'5 9.5
2018-Jul-10 08:30N 66°48' E 013°29'4 8.5
2018-Jul-10 08:01N 66°44' E 013°31'1 2.5
2018-Jul-10 07:29N 66°43' E 013°34'2 3.6
2018-Jul-10 06:58N 66°42' E 013°38'0 0.7
2018-Jul-10 06:31N 66°42' E 013°37'4 7.9
2018-Jul-10 06:00N 66°45' E 013°30'0 0.3
2018-Jul-10 05:28N 66°45' E 013°30'0 0.0
2018-Jul-10 04:55N 66°45' E 013°30'0 0.0
2018-Jul-10 04:28N 66°45' E 013°30'0 0.0
2018-Jul-10 03:55N 66°45' E 013°30'0 0.0
2018-Jul-10 03:28N 66°45' E 013°30'0 0.0
2018-Jul-10 02:58N 66°45' E 013°30'0 0.0
2018-Jul-10 02:28N 66°45' E 013°30'0 0.0
2018-Jul-10 01:55N 66°45' E 013°30'0 0.0
2018-Jul-10 01:25N 66°45' E 013°30'0 0.0
2018-Jul-10 00:59N 66°45' E 013°30'3 5.3
2018-Jul-10 00:30N 66°47' E 013°30'5 9.7
2018-Jul-09 23:59N 66°52' E 013°33'511.2
2018-Jul-09 23:31N 66°57' E 013°29'611.5
2018-Jul-09 23:00N 67°01' E 013°41'611.5
2018-Jul-09 22:30N 67°04' E 013°53'611.5
2018-Jul-09 22:00N 67°09' E 014°02'611.1
2018-Jul-09 21:30N 67°13' E 014°10'611.6
2018-Jul-09 21:00N 67°17' E 014°21'1 1.3
2018-Jul-09 20:30N 67°17' E 014°23'5 9.7
2018-Jul-09 20:00N 67°22' E 014°25'611.5
2018-Jul-09 19:30N 67°27' E 014°28'611.3
2018-Jul-09 19:00N 67°33' E 014°30'611.3
2018-Jul-09 18:29N 67°39' E 014°31'611.3
2018-Jul-09 18:00N 67°44' E 014°31'510.6
2018-Jul-09 17:30N 67°49' E 014°36'  
Track history (hours):
 
Tides and Currents Weather Stations Pressure Air Temp Water Temp Dewpoint Dewpoint Depression Visibility Wind Speed Wind Dir Waves Ship Positions

Ms Folla 2

Last reported at 2018-Jul-19 17:00 UTC. Time now 2018-Jul-19 17:05 UTC.
Position N 64°28' E 011°30'.

Length 52 m; draft 5.5 m.

Type: Cargo ship. MMSI: 258253000.

Date/timePositionNaut miles runAvg speedWind from/ knotsBaromVisibWave heightAir tempDewpointWater temp
2018-Jul-19 17:00N 64°28' E 011°30'0 0.0
2018-Jul-19 16:30N 64°28' E 011°30'0 0.0
2018-Jul-19 15:59N 64°28' E 011°30'0 0.0
2018-Jul-19 15:30N 64°28' E 011°30'0 0.0
2018-Jul-19 15:00N 64°28' E 011°30'0 0.0
2018-Jul-19 14:00N 64°28' E 011°30'3 6.0
2018-Jul-19 13:29N 64°30' E 011°26'510.1
2018-Jul-19 13:01N 64°34' E 011°20'611.3
2018-Jul-19 12:30N 64°38' E 011°10'611.5
2018-Jul-19 12:00N 64°44' E 011°07'510.6
2018-Jul-19 11:30N 64°49' E 011°08'611.0
2018-Jul-19 11:00N 64°53' E 011°17'611.8
2018-Jul-19 10:30N 64°56' E 011°28'611.6
2018-Jul-19 10:00N 65°00' E 011°38'611.5
2018-Jul-19 09:30N 65°05' E 011°46'611.8
2018-Jul-19 09:00N 65°10' E 011°51'612.0
2018-Jul-19 08:29N 65°16' E 011°57'611.8
2018-Jul-19 08:00N 65°21' E 012°03'611.8
2018-Jul-19 07:30N 65°26' E 012°10'4 8.8
2018-Jul-19 07:00N 65°31' E 012°12'611.8
2018-Jul-19 06:30N 65°37' E 012°12'5 9.4
2018-Jul-19 06:00N 65°41' E 012°08'0 0.0
2018-Jul-19 05:30N 65°41' E 012°08'0 0.0
2018-Jul-19 04:59N 65°41' E 012°08'0 0.0
2018-Jul-19 04:30N 65°41' E 012°08'0 0.0
2018-Jul-19 04:00N 65°41' E 012°08'0 0.0
2018-Jul-19 03:30N 65°41' E 012°08'0 0.0
2018-Jul-19 03:00N 65°41' E 012°08'4 7.1
2018-Jul-19 02:30N 65°45' E 012°10'611.1
2018-Jul-19 02:00N 65°50' E 012°11'611.3
2018-Jul-19 01:30N 65°56' E 012°11'510.5
2018-Jul-19 00:59N 66°01' E 012°06'511.0
2018-Jul-19 00:30N 66°06' E 012°06'511.0
2018-Jul-19 00:00N 66°12' E 012°04'611.0
2018-Jul-18 23:30N 66°17' E 012°04'511.0
2018-Jul-18 23:00N 66°23' E 012°04'611.3
2018-Jul-18 22:30N 66°28' E 012°05'1 1.5
2018-Jul-18 22:00N 66°29' E 012°05'611.2
2018-Jul-18 21:30N 66°27' E 012°18'611.6
2018-Jul-18 21:00N 66°26' E 012°32'3 6.9
2018-Jul-18 20:31N 66°22' E 012°35'510.9
2018-Jul-18 20:00N 66°27' E 012°43'610.9
2018-Jul-18 19:29N 66°31' E 012°52'510.5
2018-Jul-18 19:00N 66°36' E 012°58'3 5.5
2018-Jul-18 18:29N 66°38' E 013°00'0 0.0
2018-Jul-18 18:00N 66°38' E 013°00'3 6.0
2018-Jul-18 17:31N 66°40' E 013°07'510.5
2018-Jul-18 17:01N 66°44' E 013°14'611.3
2018-Jul-18 16:30N 66°45' E 013°29'1 1.0
2018-Jul-18 16:00N 66°45' E 013°30'0 0.0
2018-Jul-18 15:30N 66°45' E 013°30'0 0.0
2018-Jul-18 15:00N 66°45' E 013°30'0 0.0
2018-Jul-18 14:30N 66°45' E 013°30'0 0.0
2018-Jul-18 13:27N 66°45' E 013°30'0 0.0
2018-Jul-18 13:00N 66°45' E 013°30'0 0.0
2018-Jul-18 12:30N 66°45' E 013°30'2 4.5
2018-Jul-18 12:00N 66°47' E 013°31'5 9.0
2018-Jul-18 11:30N 66°51' E 013°34'9 9.2
2018-Jul-18 10:30N 67°00' E 013°40'611.7
2018-Jul-18 10:01N 67°03' E 013°52'611.4
2018-Jul-18 09:30N 67°08' E 014°01'611.8
2018-Jul-18 09:00N 67°13' E 014°08'611.8
2018-Jul-18 08:30N 67°18' E 014°17'611.6
2018-Jul-18 08:00N 67°23' E 014°25'611.7
2018-Jul-18 07:30N 67°28' E 014°29'611.5
2018-Jul-18 07:00N 67°34' E 014°30'611.3
2018-Jul-18 06:30N 67°40' E 014°31'611.6
2018-Jul-18 06:00N 67°46' E 014°32'611.2
2018-Jul-18 05:29N 67°51' E 014°39'511.3
2018-Jul-18 05:00N 67°55' E 014°47'612.0
2018-Jul-18 04:29N 68°00' E 014°57'612.0
2018-Jul-18 04:00N 68°05' E 015°07'611.7
2018-Jul-18 03:30N 68°10' E 015°16'611.7
2018-Jul-18 03:00N 68°14' E 015°26'611.2
2018-Jul-18 02:30N 68°20' E 015°28'2 4.0
2018-Jul-18 02:00N 68°20' E 015°23'0 0.0
2018-Jul-18 01:30N 68°20' E 015°23'0 0.0
2018-Jul-18 00:59N 68°20' E 015°23'0 0.0
2018-Jul-18 00:30N 68°20' E 015°23'0 0.0
2018-Jul-18 00:00N 68°20' E 015°23'1 2.8
2018-Jul-17 23:29N 68°20' E 015°27'511.0
2018-Jul-17 23:00N 68°18' E 015°40'611.6
2018-Jul-17 22:30N 68°17' E 015°55'510.4
2018-Jul-17 21:59N 68°14' E 016°07'611.6
2018-Jul-17 21:30N 68°08' E 016°10'510.4
2018-Jul-17 20:59N 68°03' E 016°12'1 2.9
2018-Jul-17 20:30N 68°02' E 016°15'0 0.0
2018-Jul-17 20:00N 68°02' E 016°15'3 6.5
2018-Jul-17 19:29N 68°04' E 016°22'1 2.1
2018-Jul-17 19:00N 68°05' E 016°19'0 0.0
2018-Jul-17 18:30N 68°05' E 016°19'0 0.0
2018-Jul-17 18:00N 68°05' E 016°19'0 0.0
2018-Jul-17 17:30N 68°05' E 016°19'2 3.2
2018-Jul-17 16:59N 68°06' E 016°17'511.0
2018-Jul-17 16:30N 68°11' E 016°11'4 8.5
2018-Jul-17 16:00N 68°15' E 016°10'510.2
2018-Jul-17 15:30N 68°19' E 016°01'611.2
2018-Jul-17 15:00N 68°25' E 016°03'611.2
2018-Jul-17 14:30N 68°30' E 016°08'510.1
2018-Jul-17 14:00N 68°33' E 016°18'5 9.5
2018-Jul-17 13:30N 68°34' E 016°31'611.2
2018-Jul-17 13:00N 68°39' E 016°37'611.5
2018-Jul-17 12:30N 68°44' E 016°45'611.4
2018-Jul-17 12:00N 68°49' E 016°53'611.3
2018-Jul-17 11:28N 68°54' E 017°02'511.1
2018-Jul-17 11:00N 68°58' E 017°10'610.9
2018-Jul-17 10:29N 69°03' E 017°20'510.9
2018-Jul-17 10:00N 69°06' E 017°31'611.4
2018-Jul-17 09:30N 69°08' E 017°45'611.3
2018-Jul-17 09:01N 69°11' E 017°59'5 9.8
2018-Jul-17 08:30N 69°16' E 017°58'510.2
2018-Jul-17 08:00N 69°21' E 018°04'510.2
2018-Jul-17 07:30N 69°26' E 018°07'510.2
2018-Jul-17 07:00N 69°30' E 018°16'611.8
2018-Jul-17 06:30N 69°32' E 018°32'612.6
2018-Jul-17 06:00N 69°34' E 018°48'611.9
2018-Jul-17 05:30N 69°39' E 018°59'611.2
2018-Jul-17 05:00N 69°44' E 019°05'611.1
2018-Jul-17 04:30N 69°47' E 019°17'611.1
2018-Jul-17 04:00N 69°50' E 019°33'611.1
2018-Jul-17 03:29N 69°52' E 019°48'511.4
2018-Jul-17 03:00N 69°55' E 020°00'611.0
2018-Jul-17 02:30N 69°59' E 020°14'510.7
2018-Jul-17 02:00N 70°00' E 020°28'511.0
2018-Jul-17 01:30N 70°02' E 020°43'510.4
2018-Jul-17 00:59N 70°05' E 020°56'611.1
2018-Jul-17 00:29N 70°10' E 021°04'1110.8
2018-Jul-16 23:30N 70°18' E 021°24'510.7
2018-Jul-16 23:00N 70°22' E 021°36'5 9.2
2018-Jul-16 22:30N 70°23' E 021°49'611.2
2018-Jul-16 22:00N 70°20' E 022°04'611.3
2018-Jul-16 21:30N 70°17' E 022°18'3 5.9
2018-Jul-16 21:00N 70°14' E 022°21'0 0.0
2018-Jul-16 20:30N 70°14' E 022°21'0 0.0
2018-Jul-16 20:00N 70°14' E 022°21'0 0.0
2018-Jul-16 19:30N 70°14' E 022°21'0 0.0
2018-Jul-16 18:59N 70°14' E 022°21'0 0.0
2018-Jul-16 18:30N 70°14' E 022°21'0 0.0
2018-Jul-16 18:00N 70°14' E 022°21'2 4.5
2018-Jul-16 17:29N 70°17' E 022°19'611.5
2018-Jul-16 17:00N 70°20' E 022°05'611.9
2018-Jul-16 16:30N 70°23' E 021°50'5 9.7
2018-Jul-16 16:00N 70°22' E 021°36'612.4
2018-Jul-16 15:30N 70°17' E 021°22'612.0
2018-Jul-16 15:00N 70°13' E 021°09'611.9
2018-Jul-16 14:30N 70°08' E 021°05'611.5
2018-Jul-16 13:59N 70°02' E 021°00'0 0.9
2018-Jul-16 13:30N 70°02' E 020°59'3 5.2
2018-Jul-16 13:00N 70°03' E 020°52'612.6
2018-Jul-16 12:30N 70°01' E 020°35'612.1
2018-Jul-16 12:00N 69°59' E 020°18'612.3
2018-Jul-16 11:30N 69°56' E 020°03'612.1
2018-Jul-16 11:00N 69°52' E 019°49'612.1
2018-Jul-16 10:30N 69°49' E 019°33'612.3
2018-Jul-16 10:00N 69°47' E 019°17'611.9
2018-Jul-16 09:30N 69°43' E 019°04'3 6.3
2018-Jul-16 09:00N 69°41' E 018°59'0 0.0
2018-Jul-16 08:30N 69°41' E 018°59'0 0.4
2018-Jul-16 08:00N 69°41' E 018°59'3 5.6
2018-Jul-16 07:30N 69°38' E 018°57'611.4
2018-Jul-16 07:00N 69°34' E 018°46'510.2
2018-Jul-16 06:30N 69°32' E 018°33'611.6
2018-Jul-16 06:00N 69°30' E 018°17'510.1
2018-Jul-16 05:29N 69°26' E 018°07'611.9
2018-Jul-16 05:00N 69°20' E 018°03'611.2
2018-Jul-16 04:30N 69°15' E 017°58'1 1.4
2018-Jul-16 04:00N 69°14' E 017°58'0 0.9
2018-Jul-16 03:30N 69°14' E 017°58'0 0.7
2018-Jul-16 03:00N 69°13' E 017°58'1 1.7
2018-Jul-16 02:28N 69°13' E 018°00'510.2
2018-Jul-16 02:00N 69°09' E 017°51'612.6
2018-Jul-16 01:30N 69°07' E 017°35'612.2
2018-Jul-16 01:00N 69°03' E 017°20'612.2
2018-Jul-16 00:30N 68°59' E 017°11'612.2
2018-Jul-16 00:00N 68°54' E 016°58'612.3
2018-Jul-15 23:30N 68°50' E 016°45'5 9.5
2018-Jul-15 23:00N 68°47' E 016°36'1 2.6
2018-Jul-15 22:30N 68°48' E 016°33'0 0.0
2018-Jul-15 21:59N 68°48' E 016°33'3 7.0
2018-Jul-15 21:30N 68°51' E 016°33'611.8
2018-Jul-15 21:00N 68°54' E 016°20'5 9.0
2018-Jul-15 20:30N 68°52' E 016°09'510.2
2018-Jul-15 19:59N 68°47' E 016°08'1 1.4
2018-Jul-15 19:30N 68°46' E 016°09'510.6
2018-Jul-15 19:00N 68°51' E 016°03'611.3
2018-Jul-15 18:30N 68°56' E 015°58'5 9.7
2018-Jul-15 18:00N 68°59' E 015°46'4 7.1
2018-Jul-15 17:30N 68°57' E 015°37'611.4
2018-Jul-15 17:00N 68°52' E 015°31'611.9
2018-Jul-15 16:29N 68°46' E 015°26'4 8.8
2018-Jul-15 16:00N 68°42' E 015°25'0 0.0
2018-Jul-15 15:29N 68°42' E 015°25'2 4.0
2018-Jul-15 14:59N 68°40' E 015°24'611.8
2018-Jul-15 14:29N 68°36' E 015°12'510.9
2018-Jul-15 14:00N 68°35' E 014°58'1 2.7
2018-Jul-15 13:30N 68°34' E 014°55'1 2.0
2018-Jul-15 13:00N 68°35' E 014°57'3 5.9
2018-Jul-15 12:30N 68°33' E 015°04'4 7.6
2018-Jul-15 12:00N 68°30' E 015°10'510.3
2018-Jul-15 11:30N 68°25' E 015°08'611.8
2018-Jul-15 11:00N 68°20' E 015°00'611.4
2018-Jul-15 10:30N 68°14' E 014°56'5 9.7
2018-Jul-15 10:00N 68°14' E 014°43'3 6.0
2018-Jul-15 09:30N 68°14' E 014°35'0 0.1
2018-Jul-15 09:00N 68°14' E 014°35'0 0.1
2018-Jul-15 08:30N 68°14' E 014°35'1 2.8
2018-Jul-15 08:00N 68°13' E 014°33'611.5
2018-Jul-15 07:29N 68°10' E 014°19'511.4
2018-Jul-15 07:00N 68°07' E 014°06'611.6
2018-Jul-15 06:30N 68°05' E 013°52'611.2
2018-Jul-15 06:00N 68°04' E 013°37'4 7.4
2018-Jul-15 05:29N 68°08' E 013°34'1 1.6
2018-Jul-15 05:00N 68°08' E 013°36'0 0.1
2018-Jul-15 04:30N 68°08' E 013°36'4 9.0
2018-Jul-15 04:00N 68°04' E 013°37'611.6
2018-Jul-15 03:30N 67°59' E 013°46'611.7
2018-Jul-15 02:59N 67°54' E 013°55'611.4
2018-Jul-15 02:29N 67°49' E 014°02'511.1
2018-Jul-15 02:00N 67°44' E 014°10'611.1
2018-Jul-15 01:30N 67°40' E 014°19'510.5
2018-Jul-15 01:00N 67°38' E 014°32'611.2
2018-Jul-15 00:30N 67°37' E 014°46'611.2
2018-Jul-15 00:00N 67°36' E 015°01'611.2
2018-Jul-14 23:27N 67°33' E 015°14'5 8.5
2018-Jul-14 22:54N 67°32' E 015°26'1 2.7
2018-Jul-14 22:28N 67°31' E 015°23'510.4
2018-Jul-14 22:00N 67°34' E 015°12'510.4
2018-Jul-14 21:30N 67°39' E 015°09'611.0
2018-Jul-14 21:00N 67°44' E 015°15'3 2.2
2018-Jul-14 19:42N 67°43' E 015°23'2 8.2
2018-Jul-14 19:28N 67°45' E 015°19'511.2
2018-Jul-14 18:59N 67°42' E 015°08'511.2
2018-Jul-14 18:30N 67°38' E 014°56'611.1
2018-Jul-14 18:00N 67°34' E 014°47'611.2
2018-Jul-14 17:30N 67°30' E 014°38'611.1
2018-Jul-14 17:00N 67°25' E 014°31'510.8
2018-Jul-14 16:30N 67°20' E 014°25'3 5.3
2018-Jul-14 16:00N 67°17' E 014°24'0 0.1
2018-Jul-14 15:30N 67°17' E 014°24'4 7.5
2018-Jul-14 15:00N 67°15' E 014°16'611.1
2018-Jul-14 14:30N 67°11' E 014°06'1010.0
2018-Jul-14 13:30N 67°03' E 013°51'611.3
2018-Jul-14 13:00N 66°60' E 013°39'510.3
2018-Jul-14 12:30N 66°56' E 013°29'5 9.5
2018-Jul-14 12:00N 66°53' E 013°39'3 5.7
2018-Jul-14 11:29N 66°51' E 013°41'510.9
2018-Jul-14 11:00N 66°48' E 013°29'3 6.5
2018-Jul-14 10:29N 66°45' E 013°30'0 0.0
2018-Jul-14 10:00N 66°45' E 013°30'1 1.9
2018-Jul-14 09:30N 66°45' E 013°32'2 4.9
2018-Jul-14 09:00N 66°45' E 013°26'611.0
2018-Jul-14 08:30N 66°44' E 013°12'2 4.0
2018-Jul-14 08:00N 66°42' E 013°16'510.9
2018-Jul-14 07:30N 66°39' E 013°07'510.6
2018-Jul-14 06:59N 66°33' E 013°03'510.7
2018-Jul-14 06:30N 66°31' E 012°51'510.7
2018-Jul-14 06:00N 66°26' E 012°47'2 4.6
2018-Jul-14 05:28N 66°24' E 012°50'3 7.0
2018-Jul-14 05:00N 66°22' E 012°42'510.8
2018-Jul-14 04:30N 66°17' E 012°39'611.3
2018-Jul-14 04:00N 66°11' E 012°39'611.2
2018-Jul-14 03:29N 66°06' E 012°40'4 8.3
2018-Jul-14 02:59N 66°01' E 012°39'0 0.6
2018-Jul-14 02:30N 66°02' E 012°38'5 9.8
2018-Jul-14 02:00N 65°59' E 012°29'510.6
2018-Jul-14 01:30N 65°54' E 012°22'510.9
2018-Jul-14 00:59N 65°49' E 012°21'510.9
2018-Jul-14 00:30N 65°43' E 012°17'510.7
2018-Jul-14 00:00N 65°38' E 012°14'510.9
2018-Jul-13 23:30N 65°33' E 012°13'4 8.4
2018-Jul-13 22:59N 65°28' E 012°12'0 0.0
2018-Jul-13 22:29N 65°28' E 012°12'1 2.5
2018-Jul-13 22:00N 65°27' E 012°11'511.0
2018-Jul-13 21:30N 65°22' E 012°05'510.9
2018-Jul-13 21:00N 65°18' E 011°59'611.0
2018-Jul-13 20:30N 65°13' E 011°53'611.0
2018-Jul-13 20:00N 65°07' E 011°49'510.7
2018-Jul-13 19:30N 65°03' E 011°43'510.8
2018-Jul-13 19:00N 64°59' E 011°35'510.8
2018-Jul-13 18:30N 64°55' E 011°25'510.4
2018-Jul-13 18:01N 64°52' E 011°17'0 0.3
2018-Jul-13 17:30N 64°52' E 011°17'0 0.4
2018-Jul-13 17:00N 64°52' E 011°16'5 9.6
2018-Jul-13 16:30N 64°48' E 011°08'5 9.7
2018-Jul-13 15:58N 64°43' E 011°06'510.8
2018-Jul-13 15:30N 64°38' E 011°09'510.3
2018-Jul-13 15:00N 64°35' E 011°18'9 9.0
2018-Jul-13 14:01N 64°27' E 011°28'1 1.9
2018-Jul-13 13:30N 64°28' E 011°30'0 0.0
2018-Jul-13 13:00N 64°28' E 011°30'0 0.0
2018-Jul-13 12:30N 64°28' E 011°30'0 0.0
2018-Jul-13 12:00N 64°28' E 011°30'0 0.0
2018-Jul-13 11:30N 64°28' E 011°30'0 0.0
2018-Jul-13 11:00N 64°28' E 011°30'0 0.0
2018-Jul-13 10:30N 64°28' E 011°30'0 0.0
2018-Jul-13 10:00N 64°28' E 011°30'0 0.0
2018-Jul-13 09:30N 64°28' E 011°30'0 0.0
2018-Jul-13 09:00N 64°28' E 011°30'0 0.0
2018-Jul-13 08:27N 64°28' E 011°30'0 0.0
2018-Jul-13 08:00N 64°28' E 011°30'0 0.0
2018-Jul-13 07:30N 64°28' E 011°30'0 0.0
2018-Jul-13 07:00N 64°28' E 011°30'0 0.0
2018-Jul-13 06:30N 64°28' E 011°30'0 0.0
2018-Jul-13 06:00N 64°28' E 011°30'0 0.0
2018-Jul-13 05:30N 64°28' E 011°30'0 0.0
2018-Jul-13 05:00N 64°28' E 011°30'0 0.0
2018-Jul-13 04:30N 64°28' E 011°30'0 0.0
2018-Jul-13 04:00N 64°28' E 011°30'0 0.0
2018-Jul-13 03:30N 64°28' E 011°30'0 0.0
2018-Jul-13 03:00N 64°28' E 011°30'0 0.0
2018-Jul-13 02:30N 64°28' E 011°30'0 0.0
2018-Jul-13 02:00N 64°28' E 011°30'0 0.0
2018-Jul-13 01:30N 64°28' E 011°30'0 0.0
2018-Jul-13 01:00N 64°28' E 011°30'0 0.0
2018-Jul-13 00:30N 64°28' E 011°30'0 0.0
2018-Jul-13 00:00N 64°28' E 011°30'0 0.0
2018-Jul-12 23:30N 64°28' E 011°30'0 0.0
2018-Jul-12 23:00N 64°28' E 011°30'0 0.0
2018-Jul-12 22:30N 64°28' E 011°30'0 0.0
2018-Jul-12 22:00N 64°28' E 011°30'0 0.0
2018-Jul-12 21:30N 64°28' E 011°30'0 0.0
2018-Jul-12 21:00N 64°28' E 011°30'0 0.0
2018-Jul-12 20:30N 64°28' E 011°30'0 0.0
2018-Jul-12 20:00N 64°28' E 011°30'0 0.0
2018-Jul-12 19:30N 64°28' E 011°30'0 0.0
2018-Jul-12 19:00N 64°28' E 011°30'0 0.0
2018-Jul-12 18:30N 64°28' E 011°30'0 0.0
2018-Jul-12 18:00N 64°28' E 011°30'0 0.0
2018-Jul-12 17:30N 64°28' E 011°30'0 0.0
2018-Jul-12 17:00N 64°28' E 011°30'0 0.0
2018-Jul-12 16:30N 64°28' E 011°30'0 0.0
2018-Jul-12 16:00N 64°28' E 011°30'0 0.0
2018-Jul-12 15:30N 64°28' E 011°30'3 5.8
2018-Jul-12 15:00N 64°28' E 011°24'611.2
2018-Jul-12 14:30N 64°30' E 011°12'510.9
2018-Jul-12 14:00N 64°35' E 011°05'511.0
2018-Jul-12 13:30N 64°38' E 010°55'510.2
2018-Jul-12 13:00N 64°42' E 010°48'4 7.2
2018-Jul-12 12:30N 64°46' E 010°48'0 0.0
2018-Jul-12 12:00N 64°46' E 010°48'0 0.0
2018-Jul-12 11:29N 64°46' E 010°48'0 0.0
2018-Jul-12 11:00N 64°46' E 010°48'0 0.0
2018-Jul-12 10:30N 64°46' E 010°48'3 6.0
2018-Jul-12 10:00N 64°47' E 010°55'510.4
2018-Jul-12 09:30N 64°48' E 011°07'5 9.7
2018-Jul-12 09:00N 64°52' E 011°15'0 0.0
2018-Jul-12 08:30N 64°52' E 011°15'1 2.0
2018-Jul-12 08:00N 64°52' E 011°17'0 0.0
2018-Jul-12 07:30N 64°52' E 011°17'0 0.0
2018-Jul-12 07:00N 64°52' E 011°17'0 0.0
2018-Jul-12 06:30N 64°52' E 011°17'0 0.0
2018-Jul-12 06:00N 64°52' E 011°17'0 0.0
2018-Jul-12 05:30N 64°52' E 011°17'0 0.0
2018-Jul-12 05:00N 64°52' E 011°17'0 0.0
2018-Jul-12 04:30N 64°52' E 011°17'0 0.0
2018-Jul-12 04:00N 64°52' E 011°17'0 0.0
2018-Jul-12 03:30N 64°52' E 011°17'0 0.0
2018-Jul-12 03:00N 64°52' E 011°17'0 0.0
2018-Jul-12 02:30N 64°52' E 011°17'0 0.0
2018-Jul-12 02:00N 64°52' E 011°17'0 0.0
2018-Jul-12 01:29N 64°52' E 011°17'0 0.0
2018-Jul-12 01:00N 64°52' E 011°17'0 0.0
2018-Jul-12 00:30N 64°52' E 011°17'0 0.0
2018-Jul-12 00:00N 64°52' E 011°17'0 0.0
2018-Jul-11 23:29N 64°52' E 011°17'0 0.0
2018-Jul-11 22:57N 64°52' E 011°17'0 0.0
2018-Jul-11 22:30N 64°52' E 011°17'0 0.0
2018-Jul-11 22:00N 64°52' E 011°17'0 0.0
2018-Jul-11 21:30N 64°52' E 011°17'0 0.0
2018-Jul-11 21:00N 64°52' E 011°17'0 0.0
2018-Jul-11 20:30N 64°52' E 011°17'0 0.0
2018-Jul-11 20:00N 64°52' E 011°17'0 0.0
2018-Jul-11 19:30N 64°52' E 011°17'0 0.0
2018-Jul-11 19:00N 64°52' E 011°17'0 0.0
2018-Jul-11 18:30N 64°52' E 011°17'0 0.0
2018-Jul-11 18:00N 64°52' E 011°17'0 0.0
2018-Jul-11 17:30N 64°52' E 011°17'2 3.6
2018-Jul-11 17:00N 64°53' E 011°18'611.7
2018-Jul-11 16:30N 64°57' E 011°29'611.4
2018-Jul-11 16:00N 65°01' E 011°39'611.6
2018-Jul-11 15:30N 65°05' E 011°47'611.9
2018-Jul-11 14:59N 65°11' E 011°52'612.0
2018-Jul-11 14:30N 65°17' E 011°58'612.0
2018-Jul-11 13:59N 65°22' E 012°05'612.0
2018-Jul-11 13:30N 65°27' E 012°11'4 7.5
2018-Jul-11 13:00N 65°31' E 012°12'612.0
2018-Jul-11 12:30N 65°37' E 012°12'5 8.6
2018-Jul-11 11:59N 65°41' E 012°08'0 0.0
2018-Jul-11 11:29N 65°41' E 012°08'0 0.0
2018-Jul-11 11:00N 65°41' E 012°08'0 0.0
2018-Jul-11 10:30N 65°41' E 012°08'0 0.0
2018-Jul-11 10:00N 65°41' E 012°08'3 5.4
2018-Jul-11 09:30N 65°43' E 012°11'611.1
2018-Jul-11 09:00N 65°49' E 012°16'611.4
2018-Jul-11 08:30N 65°54' E 012°21'611.8
2018-Jul-11 07:59N 65°59' E 012°29'612.1
2018-Jul-11 07:28N 66°04' E 012°39'511.6
2018-Jul-11 07:00N 66°08' E 012°49'1 2.4
2018-Jul-11 06:30N 66°08' E 012°52'0 0.0
2018-Jul-11 05:59N 66°08' E 012°52'3 6.7
2018-Jul-11 05:30N 66°11' E 012°47'1 1.0
2018-Jul-11 05:00N 66°11' E 012°46'0 0.0
2018-Jul-11 04:30N 66°11' E 012°46'0 0.2
2018-Jul-11 04:00N 66°11' E 012°46'510.0
2018-Jul-11 03:30N 66°14' E 012°53'1 1.4
2018-Jul-11 02:59N 66°15' E 012°53'0 0.0
2018-Jul-11 02:28N 66°15' E 012°53'0 0.4
2018-Jul-11 02:00N 66°15' E 012°54'5 9.8
2018-Jul-11 01:30N 66°20' E 012°56'611.0
2018-Jul-11 01:00N 66°25' E 012°58'510.7
2018-Jul-11 00:30N 66°31' E 012°59'5 9.8
2018-Jul-11 00:00N 66°35' E 013°04'510.6
2018-Jul-10 23:30N 66°40' E 013°08'510.2
2018-Jul-10 22:59N 66°44' E 013°16'510.7
2018-Jul-10 22:30N 66°45' E 013°29'0 0.6
2018-Jul-10 21:59N 66°45' E 013°30'0 0.0
2018-Jul-10 21:30N 66°45' E 013°30'0 0.0
2018-Jul-10 20:58N 66°45' E 013°30'0 0.0
2018-Jul-10 20:29N 66°45' E 013°30'0 0.0
2018-Jul-10 19:59N 66°45' E 013°30'0 0.0
2018-Jul-10 19:30N 66°45' E 013°30'0 0.0
2018-Jul-10 19:00N 66°45' E 013°30'0 0.0
2018-Jul-10 18:30N 66°45' E 013°30'0 0.0
2018-Jul-10 17:59N 66°45' E 013°30'0 0.0
2018-Jul-10 17:30N 66°45' E 013°30'4 7.2
2018-Jul-10 16:59N 66°44' E 013°21'510.8
2018-Jul-10 16:30N 66°42' E 013°09'5 9.9
2018-Jul-10 16:00N 66°39' E 013°00'0 0.1
2018-Jul-10 15:30N 66°38' E 013°00'0 0.0
2018-Jul-10 15:00N 66°38' E 013°00'0 0.0
2018-Jul-10 14:30N 66°38' E 013°00'2 4.2
2018-Jul-10 13:59N 66°39' E 013°05'511.3
2018-Jul-10 13:30N 66°44' E 013°11'2 4.0
2018-Jul-10 12:58N 66°46' E 013°10'0 0.0
2018-Jul-10 12:28N 66°46' E 013°10'1 2.4
2018-Jul-10 12:00N 66°47' E 013°13'2 3.8
2018-Jul-10 11:30N 66°48' E 013°14'0 0.0
2018-Jul-10 11:00N 66°48' E 013°14'2 4.0
2018-Jul-10 10:30N 66°48' E 013°19'611.1
2018-Jul-10 10:00N 66°49' E 013°33'3 3.5
2018-Jul-10 09:08N 66°49' E 013°41'0 3.1
2018-Jul-10 09:00N 66°49' E 013°41'5 9.5
2018-Jul-10 08:30N 66°48' E 013°29'4 8.5
2018-Jul-10 08:01N 66°44' E 013°31'1 2.5
2018-Jul-10 07:29N 66°43' E 013°34'2 3.6
2018-Jul-10 06:58N 66°42' E 013°38'0 0.7
2018-Jul-10 06:31N 66°42' E 013°37'4 7.9
2018-Jul-10 06:00N 66°45' E 013°30'0 0.3
2018-Jul-10 05:28N 66°45' E 013°30'0 0.0
2018-Jul-10 04:55N 66°45' E 013°30'0 0.0
2018-Jul-10 04:28N 66°45' E 013°30'0 0.0
2018-Jul-10 03:55N 66°45' E 013°30'0 0.0
2018-Jul-10 03:28N 66°45' E 013°30'0 0.0
2018-Jul-10 02:58N 66°45' E 013°30'0 0.0
2018-Jul-10 02:28N 66°45' E 013°30'0 0.0
2018-Jul-10 01:55N 66°45' E 013°30'0 0.0
2018-Jul-10 01:25N 66°45' E 013°30'0 0.0
2018-Jul-10 00:59N 66°45' E 013°30'3 5.3
2018-Jul-10 00:30N 66°47' E 013°30'5 9.7
2018-Jul-09 23:59N 66°52' E 013°33'511.2
2018-Jul-09 23:31N 66°57' E 013°29'611.5
2018-Jul-09 23:00N 67°01' E 013°41'611.5
2018-Jul-09 22:30N 67°04' E 013°53'611.5
2018-Jul-09 22:00N 67°09' E 014°02'611.1
2018-Jul-09 21:30N 67°13' E 014°10'611.6
2018-Jul-09 21:00N 67°17' E 014°21'1 1.3
2018-Jul-09 20:30N 67°17' E 014°23'5 9.7
2018-Jul-09 20:00N 67°22' E 014°25'611.5
2018-Jul-09 19:30N 67°27' E 014°28'611.3
2018-Jul-09 19:00N 67°33' E 014°30'611.3
2018-Jul-09 18:29N 67°39' E 014°31'611.3
2018-Jul-09 18:00N 67°44' E 014°31'510.6
2018-Jul-09 17:30N 67°49' E 014°36'  

Dump ship's entire track history